Aérodrome :
LOGIN :

S'inscrire | Disclaimer

   EN    FR    IT 

 










Légende :    VFR   VFR Marginal   IFR   IFR Intensif   IFR Très Intensif
Visi : 
Plafond : 
>= 8 km
>= 3000ft
5 à 8 km
1000 à 3000 ft
1500m à 5 km
500 à 1000 ft
800 à 1500m
200 à 500 ft
< 800m
< 200 ft
Symboles :   Orages  Brouillard  Fortes neiges  Fortes précipitations  Vent > 20 kt
SIGMETs :   Divers  Orages  Givrage  Turbulence  Onde Orograph.  Cendres Volcan.






- Altitude de l'aérodrome : 26 ft
- Code IATA : BIA


LFKB - Bastia

DERNIER METAR :
  • 190430Z AUTO 15014KT 9999 FEW046/// SCT054/// BKN250/// ///TCU 14/11 Q1006 TEMPO 16015G25KT 4000 SHRA BKN013 BKN025CB BKN040

METARs EXPIRÉS :
  • 190400Z AUTO 15013KT 9999 SCT048/// BKN120/// BKN150/// ///TCU 14/11 Q1006 TEMPO 16015G25KT 4000 SHRA BKN013 BKN025CB BKN040
  • 190330Z AUTO 15010KT 120V180 9999 SCT048/// BKN130/// BKN160/// ///TCU 14/11 Q1005 TEMPO 16015G25KT 4000 SHRA BKN013 BKN025CB BKN040
  • 190300Z AUTO 14013KT 120V180 9999 -RA FEW017/// BKN048/// BKN076/// ///CB 14/12 Q1005 TEMPO 18015G25KT 4500 SHRA
  • 190230Z AUTO 15015KT 6000 RA BKN014/// BKN019/// BKN048/// ///CB 14/13 Q1005 TEMPO 18015G25KT 4500 SHRA SCT023TCU BKN040
  • 190200Z AUTO 15014KT 9999 RA BKN015/// BKN024/// BKN040/// ///CB 14/12 Q1006 TEMPO 18015G25KT 4500 SHRA

TAF TAF LFKB
Valide du 19 à 03h jusqu'au 20 à 03h UTC


190200Z 1903/2003 15012KT 9999 SCT020 BKN050 TX15/1912Z TN10/1904Z
TEMPO 1903/1909 16015G25KT 4000 SHRA BKN013 BKN025CB BKN040
TEMPO 1910/2003 SHRA SCT025TCU BKN040
ATIS : +33 4 95 59 19 40



MET'MAP, la Météo Aéronautique d'un coup d'oeil ! - Copyright ORBIFLY Décembre 2007 - Disclaimer

ORBIFLY MET'MAP TEAM :

Programmation & Développement : Alexandra Zaïnal
Conception & Développement : Baudouin d'Aumeries
Co-Programmation & Développement : Marc-Olivier Méhu
Soutien technique & logistique : Manuel Goepfert

Contact : metmap@orbifly.com




SOURCES & CREDITS :

   NOAA